createdAt,value
2017-11-16T00:02:10.191Z,1.00
2017-11-16T00:04:37.680Z,1.30
2017-11-16T00:07:05.155Z,1.40
2017-11-16T00:09:32.626Z,1.50
2017-11-16T00:12:00.097Z,1.50
2017-11-16T00:14:27.576Z,1.40
2017-11-16T00:16:55.064Z,1.40
2017-11-16T00:19:22.522Z,1.50
2017-11-16T00:21:50.016Z,1.50
2017-11-16T00:24:17.512Z,1.40
2017-11-16T00:26:45.759Z,1.20
2017-11-16T00:29:13.243Z,1.10
2017-11-16T00:31:40.712Z,1.20
2017-11-16T00:34:08.204Z,1.10
2017-11-16T00:36:35.694Z,1.10
2017-11-16T00:39:03.173Z,1.00
2017-11-16T00:41:33.902Z,1.20
2017-11-16T00:44:02.155Z,1.20
2017-11-16T00:46:29.670Z,1.10
2017-11-16T00:48:57.902Z,1.20
2017-11-16T00:51:26.164Z,1.30
2017-11-16T00:53:53.637Z,1.20
2017-11-16T00:56:21.909Z,1.30
2017-11-16T00:58:49.380Z,1.20
2017-11-16T01:01:19.539Z,0.70
2017-11-16T01:03:46.993Z,0.70
2017-11-16T01:06:14.459Z,1.00
2017-11-16T01:08:41.940Z,1.00
2017-11-16T01:11:09.406Z,1.10
2017-11-16T01:13:36.898Z,1.10
2017-11-16T01:16:04.374Z,1.10
2017-11-16T01:18:31.907Z,1.00
2017-11-16T01:20:59.390Z,0.90
2017-11-16T01:23:26.886Z,0.90
2017-11-16T01:25:54.412Z,1.00
2017-11-16T01:28:21.893Z,1.10
2017-11-16T01:30:49.376Z,1.30
2017-11-16T01:33:16.856Z,1.50
2017-11-16T01:35:44.347Z,1.60
2017-11-16T01:38:11.831Z,1.70
2017-11-16T01:40:39.317Z,1.80
2017-11-16T01:43:06.789Z,1.50
2017-11-16T01:45:34.292Z,1.60
2017-11-16T01:48:01.769Z,1.70
2017-11-16T01:50:29.281Z,1.70
2017-11-16T01:52:56.742Z,1.50
2017-11-16T01:55:24.220Z,1.40
2017-11-16T01:57:51.698Z,1.70
2017-11-16T02:00:19.437Z,2.00
2017-11-16T02:02:46.921Z,1.90
2017-11-16T02:05:14.370Z,2.20
2017-11-16T02:07:41.883Z,2.40
2017-11-16T02:10:09.472Z,-1.30
2017-11-16T02:12:36.962Z,1.80
2017-11-16T02:15:05.182Z,1.30
2017-11-16T02:17:32.973Z,1.20
2017-11-16T02:20:00.482Z,1.70
2017-11-16T02:22:27.941Z,2.00
2017-11-16T02:24:55.433Z,2.10
2017-11-16T02:27:22.900Z,2.10
2017-11-16T02:29:50.357Z,2.30
2017-11-16T02:32:17.847Z,2.30
2017-11-16T02:34:47.073Z,2.30
2017-11-16T02:37:14.545Z,2.30
2017-11-16T02:39:42.015Z,2.30
2017-11-16T02:42:09.499Z,2.00
2017-11-16T02:44:36.979Z,1.90
2017-11-16T02:47:05.233Z,1.90
2017-11-16T02:49:32.698Z,1.90
2017-11-16T02:52:01.488Z,1.90
2017-11-16T02:54:29.806Z,1.90
2017-11-16T02:56:57.335Z,1.90
2017-11-16T02:59:25.570Z,2.10
2017-11-16T03:01:53.044Z,2.10
2017-11-16T03:04:20.538Z,2.00
2017-11-16T03:06:47.996Z,2.10
2017-11-16T03:09:15.484Z,2.00
2017-11-16T03:11:42.955Z,2.00
2017-11-16T03:14:10.466Z,2.10
2017-11-16T03:16:37.988Z,2.00
2017-11-16T03:19:05.468Z,2.20
2017-11-16T03:21:33.742Z,2.30
2017-11-16T03:24:01.998Z,2.20
2017-11-16T03:26:29.767Z,2.20
2017-11-16T03:28:57.252Z,2.30
2017-11-16T03:31:24.717Z,2.30
2017-11-16T03:33:52.185Z,2.40
2017-11-16T03:36:19.669Z,2.40
2017-11-16T03:38:47.145Z,2.50
2017-11-16T03:41:14.633Z,2.70
2017-11-16T03:43:42.872Z,2.80
2017-11-16T03:46:10.340Z,2.70
2017-11-16T03:48:37.827Z,2.80
2017-11-16T03:51:06.069Z,2.60
2017-11-16T03:53:33.566Z,2.60
2017-11-16T03:56:01.063Z,2.50
2017-11-16T03:58:28.544Z,2.30
2017-11-16T04:00:56.029Z,2.20
2017-11-16T04:03:23.497Z,2.50
2017-11-16T04:05:50.981Z,2.70
2017-11-16T04:08:18.490Z,2.70
2017-11-16T04:10:46.730Z,2.60
2017-11-16T04:13:14.220Z,2.60
2017-11-16T04:15:42.483Z,2.40
2017-11-16T04:18:09.972Z,2.40
2017-11-16T04:20:37.449Z,2.30
2017-11-16T04:23:04.919Z,2.10
2017-11-16T04:25:32.483Z,2.20
2017-11-16T04:27:59.961Z,2.40
2017-11-16T04:30:27.445Z,2.60
2017-11-16T04:32:55.672Z,2.60
2017-11-16T04:35:23.165Z,2.60
2017-11-16T04:37:50.632Z,2.80
2017-11-16T04:40:18.871Z,2.80
2017-11-16T04:42:46.352Z,2.80
2017-11-16T04:45:13.817Z,2.60
2017-11-16T04:47:42.922Z,2.50
2017-11-16T04:50:11.176Z,2.40
2017-11-16T04:52:38.662Z,2.40
2017-11-16T04:55:07.249Z,2.60
2017-11-16T04:57:34.723Z,2.60
2017-11-16T05:00:02.217Z,2.30
2017-11-16T05:02:29.688Z,2.40
2017-11-16T05:04:57.179Z,2.70
2017-11-16T05:07:24.697Z,2.50
2017-11-16T05:09:52.595Z,2.50
2017-11-16T05:12:20.836Z,2.40
2017-11-16T05:14:48.315Z,2.40
2017-11-16T05:17:15.793Z,2.30
2017-11-16T05:19:43.303Z,2.20
2017-11-16T05:22:10.796Z,2.30
2017-11-16T05:24:39.030Z,3.00
2017-11-16T05:27:06.516Z,3.00
2017-11-16T05:29:34.766Z,3.40
2017-11-16T05:32:02.274Z,3.30
2017-11-16T05:34:29.764Z,3.20
2017-11-16T05:36:57.988Z,3.00
2017-11-16T05:39:26.237Z,2.90
2017-11-16T05:41:53.706Z,2.90
2017-11-16T05:44:21.204Z,2.60
2017-11-16T05:46:48.695Z,2.90
2017-11-16T05:49:16.161Z,3.00
2017-11-16T05:51:43.643Z,2.60
2017-11-16T05:54:11.111Z,2.60
2017-11-16T05:56:38.595Z,2.90
2017-11-16T05:59:06.056Z,2.90
2017-11-16T06:01:33.537Z,3.20
2017-11-16T06:04:01.016Z,3.20
2017-11-16T06:06:28.997Z,3.30
2017-11-16T06:08:56.481Z,3.40
2017-11-16T06:11:23.976Z,3.60
2017-11-16T06:13:51.454Z,3.80
2017-11-16T06:16:18.929Z,3.90
2017-11-16T06:18:46.694Z,3.60
2017-11-16T06:21:14.183Z,3.60
2017-11-16T06:23:41.684Z,3.70
2017-11-16T06:26:09.188Z,3.90
2017-11-16T06:28:37.425Z,3.50
2017-11-16T06:31:04.930Z,3.50
2017-11-16T06:33:32.386Z,3.50
2017-11-16T06:35:59.880Z,3.70
2017-11-16T06:38:27.456Z,3.30
2017-11-16T06:40:54.920Z,3.10
2017-11-16T06:43:22.422Z,3.10
2017-11-16T06:45:49.934Z,3.00
2017-11-16T06:48:17.690Z,3.30
2017-11-16T06:50:45.163Z,3.60
2017-11-16T06:53:12.661Z,3.80
2017-11-16T06:55:40.166Z,3.90
2017-11-16T06:58:07.634Z,3.90
2017-11-16T07:00:35.400Z,3.60
2017-11-16T07:03:02.920Z,3.20
2017-11-16T07:05:30.388Z,3.20
2017-11-16T07:07:57.889Z,3.00
2017-11-16T07:10:25.364Z,3.10
2017-11-16T07:12:52.861Z,3.40
2017-11-16T07:15:20.335Z,3.60
2017-11-16T07:17:47.823Z,3.60
2017-11-16T07:20:16.110Z,3.80
2017-11-16T07:22:43.589Z,3.80
2017-11-16T07:25:11.106Z,3.80
2017-11-16T07:27:38.586Z,3.80
2017-11-16T07:30:06.073Z,3.80
2017-11-16T07:32:33.572Z,3.80
2017-11-16T07:35:01.086Z,3.70
2017-11-16T07:37:28.593Z,3.80
2017-11-16T07:39:56.046Z,4.00
2017-11-16T07:42:23.550Z,4.10
2017-11-16T07:44:51.043Z,4.10
2017-11-16T07:47:18.517Z,4.00
2017-11-16T07:49:45.994Z,3.90
2017-11-16T07:52:13.465Z,4.10
2017-11-16T07:54:41.000Z,4.20
2017-11-16T07:57:08.497Z,4.10
2017-11-16T07:59:35.959Z,4.00
2017-11-16T08:02:03.689Z,4.00
2017-11-16T08:04:31.174Z,3.90
2017-11-16T08:06:58.655Z,3.90
2017-11-16T08:09:26.187Z,3.80
2017-11-16T08:11:53.680Z,3.80
2017-11-16T08:14:21.172Z,3.70
2017-11-16T08:16:48.662Z,3.90
2017-11-16T08:19:16.135Z,4.10
2017-11-16T08:21:43.633Z,3.90
2017-11-16T08:24:11.884Z,3.80
2017-11-16T08:26:39.375Z,3.80
2017-11-16T08:29:07.630Z,4.10
2017-11-16T08:31:35.088Z,4.10
2017-11-16T08:34:03.697Z,3.80
2017-11-16T08:36:31.185Z,3.80
2017-11-16T08:38:58.713Z,3.90
2017-11-16T08:41:26.232Z,4.10
2017-11-16T08:43:53.700Z,4.00
2017-11-16T08:46:21.517Z,4.10
2017-11-16T08:48:49.001Z,4.20
2017-11-16T08:51:16.487Z,4.10
2017-11-16T08:53:43.982Z,4.20
2017-11-16T08:56:11.463Z,4.30
2017-11-16T08:58:38.955Z,4.40
2017-11-16T09:01:06.429Z,4.60
2017-11-16T09:03:33.919Z,4.50
2017-11-16T09:06:01.417Z,4.50
2017-11-16T09:08:28.904Z,4.70
2017-11-16T09:10:56.489Z,4.90
2017-11-16T09:13:23.972Z,5.00
2017-11-16T09:15:51.464Z,5.00
2017-11-16T09:18:19.801Z,5.00
2017-11-16T09:20:47.282Z,5.00
2017-11-16T09:23:14.775Z,5.00
2017-11-16T09:25:42.240Z,5.10
2017-11-16T09:28:09.717Z,5.00
2017-11-16T09:30:37.222Z,5.00
2017-11-16T09:33:04.700Z,5.10
2017-11-16T09:35:32.973Z,5.10
2017-11-16T09:38:01.236Z,5.00
2017-11-16T09:40:28.778Z,5.00
2017-11-16T09:42:56.271Z,4.90
2017-11-16T09:45:23.748Z,5.00
2017-11-16T09:47:51.231Z,4.80
2017-11-16T09:50:18.725Z,5.10
2017-11-16T09:52:46.193Z,4.90
2017-11-16T09:55:14.436Z,4.20
2017-11-16T09:57:41.917Z,4.20
2017-11-16T10:00:09.388Z,4.30
2017-11-16T10:02:37.652Z,4.80
2017-11-16T10:05:05.129Z,4.80
2017-11-16T10:07:33.374Z,5.10
2017-11-16T10:10:00.833Z,5.10
2017-11-16T10:12:28.300Z,4.80
2017-11-16T10:14:56.550Z,4.90
2017-11-16T10:17:24.040Z,4.90
2017-11-16T10:19:51.521Z,4.80
2017-11-16T10:22:19.013Z,4.80
2017-11-16T10:24:46.513Z,5.00
2017-11-16T10:27:14.756Z,5.20
2017-11-16T10:29:42.230Z,5.20
2017-11-16T10:32:10.501Z,5.20
2017-11-16T10:34:37.974Z,5.20
2017-11-16T10:37:06.220Z,5.40
2017-11-16T10:39:33.682Z,5.30
2017-11-16T10:42:01.162Z,5.50
2017-11-16T10:44:29.414Z,4.90
2017-11-16T10:46:56.892Z,4.90
2017-11-16T10:49:24.768Z,4.70
2017-11-16T10:51:52.236Z,4.60
2017-11-16T10:54:19.708Z,4.60
2017-11-16T10:56:47.221Z,4.40
2017-11-16T10:59:14.688Z,4.60
2017-11-16T11:01:42.947Z,5.10
2017-11-16T11:04:10.414Z,5.10
2017-11-16T11:06:38.144Z,5.10
2017-11-16T11:09:05.621Z,5.40
2017-11-16T11:11:33.087Z,5.40
2017-11-16T11:14:00.579Z,5.30
2017-11-16T11:16:28.061Z,5.30
2017-11-16T11:18:55.723Z,5.30
2017-11-16T11:21:23.229Z,5.40
2017-11-16T11:23:50.691Z,5.60
2017-11-16T11:26:18.966Z,5.20
2017-11-16T11:28:46.488Z,5.20
2017-11-16T11:31:14.003Z,5.30
2017-11-16T11:33:41.516Z,5.50
2017-11-16T11:36:08.980Z,5.50
2017-11-16T11:38:36.544Z,5.80
2017-11-16T11:41:04.034Z,6.10
2017-11-16T11:43:32.294Z,6.00
2017-11-16T11:45:59.770Z,6.00
2017-11-16T11:48:27.244Z,6.30
2017-11-16T11:50:55.078Z,6.60
2017-11-16T11:53:23.609Z,6.80
2017-11-16T11:55:51.094Z,6.80
2017-11-16T11:58:18.623Z,6.80
2017-11-16T12:00:46.084Z,7.10
2017-11-16T12:03:13.663Z,6.70
2017-11-16T12:05:41.164Z,6.60
2017-11-16T12:08:08.676Z,6.50
2017-11-16T12:10:36.234Z,6.70
2017-11-16T12:13:04.601Z,7.00
2017-11-16T12:15:32.103Z,7.00
2017-11-16T12:18:00.349Z,6.30
2017-11-16T12:20:27.819Z,6.30
2017-11-16T12:22:55.317Z,5.90
2017-11-16T12:25:22.809Z,6.00
2017-11-16T12:27:50.713Z,5.90
2017-11-16T12:30:18.962Z,6.00
2017-11-16T12:32:46.449Z,5.90
2017-11-16T12:35:14.715Z,6.30
2017-11-16T12:37:42.172Z,6.40
2017-11-16T12:40:10.499Z,6.50
2017-11-16T12:42:38.764Z,6.50
2017-11-16T12:45:06.242Z,6.50
2017-11-16T12:47:33.742Z,6.50
2017-11-16T12:50:01.235Z,6.50
2017-11-16T12:52:28.724Z,6.60
2017-11-16T12:54:57.845Z,6.70
2017-11-16T12:57:26.116Z,6.30
2017-11-16T12:59:53.628Z,6.30
2017-11-16T13:02:21.880Z,6.00
2017-11-16T13:04:49.417Z,6.00
2017-11-16T13:07:18.092Z,6.20
2017-11-16T13:09:45.667Z,6.20
2017-11-16T13:12:13.920Z,6.00
2017-11-16T13:14:41.420Z,5.90
2017-11-16T13:17:08.953Z,5.80
2017-11-16T13:19:37.233Z,6.10
2017-11-16T13:22:04.713Z,6.30
2017-11-16T13:24:32.661Z,6.10
2017-11-16T13:27:00.904Z,5.90
2017-11-16T13:29:28.390Z,5.90
2017-11-16T13:31:56.623Z,5.90
2017-11-16T13:34:24.109Z,5.90
2017-11-16T13:36:51.600Z,6.10
2017-11-16T13:39:19.122Z,5.80
2017-11-16T13:41:46.643Z,5.60
2017-11-16T13:44:14.560Z,5.50
2017-11-16T13:46:42.818Z,5.50
2017-11-16T13:49:10.334Z,5.50
2017-11-16T13:51:37.856Z,5.50
2017-11-16T13:54:06.118Z,5.60
2017-11-16T13:56:33.596Z,5.60
2017-11-16T13:59:01.831Z,5.50
2017-11-16T14:01:29.331Z,5.50
2017-11-16T14:03:56.802Z,5.50
2017-11-16T14:06:24.298Z,5.50
2017-11-16T14:08:51.789Z,5.50
2017-11-16T14:11:21.089Z,5.20
2017-11-16T14:13:49.348Z,5.20
2017-11-16T14:16:16.848Z,5.10
2017-11-16T14:18:44.322Z,5.20
2017-11-16T14:21:11.809Z,5.10
2017-11-16T14:23:39.269Z,5.10
2017-11-16T14:26:06.771Z,5.10
2017-11-16T14:28:34.254Z,4.90
2017-11-16T14:31:01.744Z,4.90
2017-11-16T14:33:29.212Z,4.80
2017-11-16T14:35:56.701Z,5.00
2017-11-16T14:38:24.438Z,5.00
2017-11-16T14:40:51.904Z,4.80
2017-11-16T14:43:19.380Z,4.80
2017-11-16T14:45:47.633Z,4.90
2017-11-16T14:48:15.113Z,4.80
2017-11-16T14:50:42.613Z,4.70
2017-11-16T14:53:11.448Z,4.60
2017-11-16T14:55:38.933Z,4.70
2017-11-16T14:58:06.424Z,4.60
2017-11-16T15:00:33.889Z,4.70
2017-11-16T15:03:01.372Z,4.40
2017-11-16T15:05:29.602Z,4.20
2017-11-16T15:07:57.095Z,4.20
2017-11-16T15:10:24.577Z,4.30
2017-11-16T15:12:52.063Z,4.30
2017-11-16T15:15:19.556Z,4.50
2017-11-16T15:17:47.063Z,4.70
2017-11-16T15:20:14.562Z,4.60
2017-11-16T15:22:42.097Z,4.80
2017-11-16T15:25:09.578Z,4.70
2017-11-16T15:27:37.065Z,4.70
2017-11-16T15:30:05.326Z,4.60
2017-11-16T15:32:32.796Z,4.60
2017-11-16T15:35:01.066Z,4.60
2017-11-16T15:37:28.533Z,4.60
2017-11-16T15:39:57.069Z,4.70
2017-11-16T15:42:24.540Z,4.70
2017-11-16T15:44:52.014Z,4.80
2017-11-16T15:47:19.521Z,4.70
2017-11-16T15:49:47.008Z,4.80
2017-11-16T15:52:14.550Z,4.80
2017-11-16T15:54:42.052Z,4.50
2017-11-16T15:57:09.517Z,4.40
2017-11-16T15:59:37.960Z,4.30
2017-11-16T16:02:05.441Z,4.30
2017-11-16T16:04:32.941Z,4.30
2017-11-16T16:07:00.440Z,4.20
2017-11-16T16:09:27.944Z,4.30
2017-11-16T16:11:56.205Z,4.40
2017-11-16T16:14:24.463Z,4.20
2017-11-16T16:16:52.034Z,4.20
2017-11-16T16:19:19.507Z,4.10
2017-11-16T16:21:48.074Z,3.90
2017-11-16T16:24:15.733Z,3.90
2017-11-16T16:26:43.208Z,3.90
2017-11-16T16:29:11.731Z,3.90
2017-11-16T16:31:39.301Z,3.80
2017-11-16T16:34:06.878Z,3.90
2017-11-16T16:36:34.429Z,3.90
2017-11-16T16:39:01.923Z,3.90
2017-11-16T16:41:29.989Z,3.90
2017-11-16T16:43:57.957Z,4.10
2017-11-16T16:46:26.219Z,3.80
2017-11-16T16:48:53.736Z,3.80
2017-11-16T16:51:21.210Z,3.90
2017-11-16T16:53:48.711Z,3.60
2017-11-16T16:56:16.184Z,3.80
2017-11-16T16:58:43.689Z,3.80
2017-11-16T17:01:11.177Z,3.90
2017-11-16T17:03:38.696Z,3.80
2017-11-16T17:06:06.222Z,3.60
2017-11-16T17:08:33.788Z,3.60
2017-11-16T17:11:01.430Z,3.60
2017-11-16T17:13:29.218Z,3.60
2017-11-16T17:15:56.760Z,3.80
2017-11-16T17:18:24.374Z,3.80
2017-11-16T17:20:52.305Z,3.90
2017-11-16T17:23:19.984Z,4.00
2017-11-16T17:25:47.913Z,4.20
2017-11-16T17:28:15.745Z,4.10
2017-11-16T17:30:44.388Z,4.00
2017-11-16T17:33:12.282Z,3.90
2017-11-16T17:35:40.713Z,4.00
2017-11-16T17:38:08.241Z,4.00
2017-11-16T17:40:35.750Z,3.90
2017-11-16T17:43:03.237Z,3.80
2017-11-16T17:45:30.763Z,3.70
2017-11-16T17:47:58.256Z,3.60
2017-11-16T17:50:25.842Z,3.70
2017-11-16T17:52:53.434Z,3.80
2017-11-16T17:55:20.947Z,3.80
2017-11-16T17:57:49.264Z,3.90
2017-11-16T18:00:16.740Z,3.80
2017-11-16T18:02:44.228Z,3.60
2017-11-16T18:05:11.726Z,3.70
2017-11-16T18:07:39.227Z,3.60
2017-11-16T18:10:06.724Z,3.70
2017-11-16T18:12:34.201Z,3.90
2017-11-16T18:15:01.701Z,4.10
2017-11-16T18:17:29.184Z,4.00
2017-11-16T18:19:56.667Z,4.10
2017-11-16T18:22:24.935Z,4.00
2017-11-16T18:24:53.178Z,3.80
2017-11-16T18:27:20.732Z,3.80
2017-11-16T18:29:48.226Z,3.50
2017-11-16T18:32:15.722Z,3.50
2017-11-16T18:34:43.379Z,3.60
2017-11-16T18:37:10.850Z,3.70
2017-11-16T18:39:40.474Z,3.40
2017-11-16T18:42:07.974Z,3.60
2017-11-16T18:44:35.476Z,3.60
2017-11-16T18:47:02.980Z,3.80
2017-11-16T18:49:31.241Z,3.50
2017-11-16T18:51:58.834Z,3.50
2017-11-16T18:54:26.341Z,3.60
2017-11-16T18:56:53.961Z,3.70
2017-11-16T18:59:21.442Z,3.90
2017-11-16T19:01:48.913Z,3.80
2017-11-16T19:04:16.727Z,3.80
2017-11-16T19:06:44.957Z,3.60
2017-11-16T19:09:12.455Z,3.60
2017-11-16T19:11:40.005Z,3.60
2017-11-16T19:14:09.146Z,3.60
2017-11-16T19:16:36.670Z,3.40
2017-11-16T19:19:04.224Z,3.50
2017-11-16T19:21:31.830Z,3.40
2017-11-16T19:23:59.397Z,3.40
2017-11-16T19:26:27.006Z,3.60
2017-11-16T19:28:54.909Z,3.60
2017-11-16T19:31:22.458Z,3.60
2017-11-16T19:33:50.063Z,3.60
2017-11-16T19:36:17.934Z,3.80
2017-11-16T19:38:45.567Z,3.60
2017-11-16T19:41:13.360Z,3.60
2017-11-16T19:43:41.747Z,3.70
2017-11-16T19:46:09.272Z,3.60
2017-11-16T19:48:36.866Z,3.60
2017-11-16T19:51:04.502Z,3.80
2017-11-16T19:53:32.033Z,4.00
2017-11-16T19:55:59.735Z,3.90
2017-11-16T19:58:27.394Z,3.80
2017-11-16T20:00:54.982Z,4.00
2017-11-16T20:03:23.367Z,3.90
2017-11-16T20:05:50.902Z,3.90
2017-11-16T20:08:18.437Z,3.80
2017-11-16T20:10:46.088Z,3.80
2017-11-16T20:13:13.679Z,3.80
2017-11-16T20:15:41.939Z,3.90
2017-11-16T20:18:09.554Z,3.90
2017-11-16T20:20:37.167Z,3.80
2017-11-16T20:23:04.825Z,3.80
2017-11-16T20:25:32.500Z,4.00
2017-11-16T20:28:00.023Z,4.00
2017-11-16T20:30:27.554Z,4.10
2017-11-16T20:32:55.084Z,4.20
2017-11-16T20:35:22.583Z,4.20
2017-11-16T20:37:54.003Z,4.30
2017-11-16T20:40:27.190Z,4.10
2017-11-16T20:43:00.411Z,4.20
2017-11-16T20:45:33.612Z,4.30
2017-11-16T20:48:21.205Z,4.20
2017-11-16T20:50:53.976Z,4.30
2017-11-16T20:53:37.118Z,4.40
2017-11-16T20:56:04.618Z,4.40
2017-11-16T20:58:32.354Z,4.10
2017-11-16T21:00:59.854Z,4.20
2017-11-16T21:03:27.360Z,4.10
2017-11-16T21:05:54.860Z,4.10
2017-11-16T21:08:22.347Z,4.10
2017-11-16T21:10:49.882Z,4.00
2017-11-16T21:13:17.381Z,4.00
2017-11-16T21:15:44.863Z,4.10
2017-11-16T21:18:12.380Z,4.00
2017-11-16T21:20:39.856Z,4.00
2017-11-16T21:23:08.116Z,4.20
2017-11-16T21:25:35.600Z,4.20
2017-11-16T21:28:03.097Z,4.40
2017-11-16T21:30:31.401Z,4.40
2017-11-16T21:32:59.694Z,4.40
2017-11-16T21:35:27.221Z,4.40
2017-11-16T21:37:54.782Z,4.30
2017-11-16T21:40:22.279Z,4.30
2017-11-16T21:42:49.772Z,4.50
2017-11-16T21:45:17.285Z,4.50
2017-11-16T21:47:45.051Z,4.70
2017-11-16T21:50:12.570Z,4.60
2017-11-16T21:52:40.057Z,4.70
2017-11-16T21:55:08.322Z,4.50
2017-11-16T21:57:35.787Z,4.50
2017-11-16T22:00:04.381Z,4.40
2017-11-16T22:02:31.867Z,4.40
2017-11-16T22:04:59.365Z,4.60
2017-11-16T22:07:26.867Z,4.50
2017-11-16T22:09:54.344Z,4.50
2017-11-16T22:12:21.830Z,4.40
2017-11-16T22:14:49.315Z,4.50
2017-11-16T22:17:36.332Z,4.50
2017-11-16T22:20:04.571Z,4.40
2017-11-16T22:22:32.061Z,4.40
2017-11-16T22:25:00.321Z,4.30
2017-11-16T22:27:27.816Z,4.20
2017-11-16T22:29:55.565Z,4.40
2017-11-16T22:32:23.820Z,4.50
2017-11-16T22:34:51.317Z,4.40
2017-11-16T22:37:18.814Z,4.50
2017-11-16T22:39:46.308Z,4.60
2017-11-16T22:42:14.568Z,4.60
2017-11-16T22:44:42.052Z,4.60
2017-11-16T22:47:10.314Z,4.50
2017-11-16T22:49:38.565Z,4.40
2017-11-16T22:52:06.055Z,4.40
2017-11-16T22:54:33.581Z,4.50
2017-11-16T22:57:01.062Z,4.50
2017-11-16T22:59:29.314Z,4.50
2017-11-16T23:01:56.817Z,4.50
2017-11-16T23:04:24.963Z,4.50
2017-11-16T23:06:52.981Z,4.60
2017-11-16T23:09:20.462Z,4.50
2017-11-16T23:11:47.952Z,4.40
2017-11-16T23:14:16.221Z,4.50
2017-11-16T23:16:43.706Z,4.40
2017-11-16T23:19:11.948Z,4.50
2017-11-16T23:21:39.431Z,4.50
2017-11-16T23:24:07.681Z,4.90
2017-11-16T23:26:35.158Z,4.80
2017-11-16T23:29:03.378Z,4.70
2017-11-16T23:31:31.185Z,4.70
2017-11-16T23:33:58.684Z,4.90
2017-11-16T23:36:26.156Z,4.90
2017-11-16T23:38:53.653Z,4.90
2017-11-16T23:41:21.134Z,5.00
2017-11-16T23:43:49.401Z,5.10
2017-11-16T23:46:17.640Z,5.00
2017-11-16T23:48:45.127Z,5.00
2017-11-16T23:51:12.600Z,5.00
2017-11-16T23:53:40.085Z,4.80
2017-11-16T23:56:07.581Z,4.90
2017-11-16T23:58:35.056Z,4.60
